Главная страница
METAR-TAF:

METAR-TAF

Аэропорты :

Винница, Украина

широта: 49-14-23N, долгота: 028-36-50E, высота над уровнем моря: 974 м

Текущие метеонаблюдения

Эта сводка был подготовлена 4 часа и 48 минут назад, в 19:00 UTC
Ветер 4 Узел от западно-северо-западный
Температура 6°C
Влажность 81%
Давление 1021 hPa
Видимость: 4300 м
дым

METAR: UKWW 221900Z 29002MPS 4300 FU NSC 06/03 Q1021 R31/0///65 NOSIG

Время: 02:48 (23:48 UTC)

Прогноз

Эта сводка был подготовлена 6 часа и 38 минут назад, в 17:10 UTC
Прогноз действительный с 22-го 18 UTC до 23-го 03 UTC
Ветер 2 Узел переменных направлений
Видимость: 4000 м
Отдельные облака на высоте 1000 фута
дымка
временами
С 22-го 19 UTC до 23-го 03 UTC
Видимость: 0500 м
на высоте 200 фута
туман

TAF: UKWW 221710Z 2218/2303 VRB01MPS 4000 BR SCT010 TX07/2218Z TN03/2303Z TEMPO 2219/2303 0500 FG VV002

Метеонаблюдения и прогнозы для более 4000 аэропортов (сводки METAR и TAF).

Имеющиеся станции представлены на карте желтыми и красными точками.

Чтобы увидеть название станции, наведите на нее мышь.

Затем щелкните, чтобы увидеть метеонаблюдения и метеопрогнозы.

Управление картой: чтобы увеличить масштаб, щелкните зеленые кнопки с черным крестиком; чтобы уменьшить масштаб, щелкните зеленую кнопку с тире; для просмотра соседних карт щелкайте зеленые стрелки.


METAR-TAF: